createdAt,value
2023-02-09T00:00:29.212Z,-4.03
2023-02-09T00:01:32.114Z,-3.97
2023-02-09T00:02:33.745Z,-3.93
2023-02-09T00:03:35.404Z,-3.91
2023-02-09T00:04:37.118Z,-3.91
2023-02-09T00:05:38.681Z,-3.87
2023-02-09T00:06:40.206Z,-3.84
2023-02-09T00:07:41.676Z,-3.83
2023-02-09T00:08:43.942Z,-3.81
2023-02-09T00:09:45.429Z,-3.88
2023-02-09T00:10:47.409Z,-3.96
2023-02-09T00:12:07.573Z,-4.02
2023-02-09T00:13:25.190Z,-4.08
2023-02-09T00:14:27.059Z,-4.19
2023-02-09T00:15:28.586Z,-4.26
2023-02-09T00:16:30.252Z,-4.30
2023-02-09T00:17:33.820Z,-4.25
2023-02-09T00:18:38.330Z,-4.23
2023-02-09T00:19:39.833Z,-4.18
2023-02-09T00:20:41.319Z,-4.20
2023-02-09T00:21:43.185Z,-4.23
2023-02-09T00:22:44.711Z,-4.19
2023-02-09T00:23:46.186Z,-4.20
2023-02-09T00:24:47.618Z,-4.15
2023-02-09T00:25:50.060Z,-4.14
2023-02-09T00:26:59.492Z,-4.12
2023-02-09T00:28:03.852Z,-4.08
2023-02-09T00:29:06.275Z,-4.09
2023-02-09T00:30:08.613Z,-4.16
2023-02-09T00:31:12.530Z,-4.19
2023-02-09T00:32:14.095Z,-4.17
2023-02-09T00:33:15.712Z,-4.12
2023-02-09T00:34:18.365Z,-4.10
2023-02-09T00:35:20.537Z,-4.07
2023-02-09T00:36:22.064Z,-4.07
2023-02-09T00:37:34.168Z,-4.03
2023-02-09T00:38:39.304Z,-4.00
2023-02-09T00:39:40.803Z,-4.01
2023-02-09T00:40:42.834Z,-4.08
2023-02-09T00:42:03.202Z,-4.09
2023-02-09T00:43:05.344Z,-4.13
2023-02-09T00:44:07.186Z,-4.14
2023-02-09T00:45:09.621Z,-4.13
2023-02-09T00:46:11.168Z,-4.09
2023-02-09T00:47:13.153Z,-4.00
2023-02-09T00:48:14.898Z,-4.03
2023-02-09T00:49:16.424Z,-4.01
2023-02-09T00:50:18.272Z,-4.00
2023-02-09T00:51:20.224Z,-4.02
2023-02-09T00:52:22.198Z,-3.96
2023-02-09T00:53:24.412Z,-3.91
2023-02-09T00:54:26.050Z,-3.90
2023-02-09T00:55:27.763Z,-3.94
2023-02-09T00:56:29.255Z,-3.95
2023-02-09T00:57:31.084Z,-3.92
2023-02-09T00:58:32.554Z,-3.90
2023-02-09T00:59:35.565Z,-3.88
2023-02-09T01:00:37.496Z,-3.89
2023-02-09T01:01:39.634Z,-3.90
2023-02-09T01:02:41.504Z,-3.90
2023-02-09T01:03:45.094Z,-3.96
2023-02-09T01:04:46.711Z,-3.98
2023-02-09T01:05:48.292Z,-3.99
2023-02-09T01:06:49.792Z,-4.00
2023-02-09T01:07:51.310Z,-4.06
2023-02-09T01:08:52.888Z,-4.10
2023-02-09T01:09:54.405Z,-4.12
2023-02-09T01:10:55.896Z,-4.15
2023-02-09T01:11:57.697Z,-4.16
2023-02-09T01:12:59.208Z,-4.19
2023-02-09T01:14:02.406Z,-4.21
2023-02-09T01:15:03.965Z,-4.16
2023-02-09T01:16:09.032Z,-4.16
2023-02-09T01:17:10.807Z,-4.15
2023-02-09T01:18:12.288Z,-4.22
2023-02-09T01:19:14.303Z,-4.24
2023-02-09T01:20:16.890Z,-4.29
2023-02-09T01:21:21.386Z,-4.35
2023-02-09T01:22:23.132Z,-4.41
2023-02-09T01:23:24.639Z,-4.47
2023-02-09T01:24:26.404Z,-4.52
2023-02-09T01:25:28.277Z,-4.56
2023-02-09T01:26:29.782Z,-4.52
2023-02-09T01:27:31.269Z,-4.51
2023-02-09T01:28:32.715Z,-4.47
2023-02-09T01:29:34.252Z,-4.49
2023-02-09T01:30:35.760Z,-4.52
2023-02-09T01:31:37.947Z,-4.51
2023-02-09T01:32:39.562Z,-4.50
2023-02-09T01:33:41.106Z,-4.49
2023-02-09T01:34:42.782Z,-4.49
2023-02-09T01:35:44.237Z,-4.48
2023-02-09T01:36:46.138Z,-4.45
2023-02-09T01:37:47.638Z,-4.48
2023-02-09T01:38:58.424Z,-4.43
2023-02-09T01:39:59.831Z,-4.44
2023-02-09T01:41:01.296Z,-4.46
2023-02-09T01:42:04.878Z,-4.46
2023-02-09T01:43:06.701Z,-4.47
2023-02-09T01:44:28.280Z,-4.48
2023-02-09T01:45:36.822Z,-4.48
2023-02-09T01:46:39.857Z,-4.47
2023-02-09T01:47:54.457Z,-4.48
2023-02-09T01:49:20.350Z,-4.55
2023-02-09T01:50:23.244Z,-4.56
2023-02-09T01:51:26.009Z,-4.60
2023-02-09T01:52:29.933Z,-4.58
2023-02-09T01:53:32.706Z,-4.60
2023-02-09T01:54:37.150Z,-4.59
2023-02-09T01:55:51.222Z,-4.59
2023-02-09T01:57:00.036Z,-4.57
2023-02-09T01:58:15.398Z,-4.57
2023-02-09T01:59:17.837Z,-4.62
2023-02-09T02:00:22.171Z,-4.64
2023-02-09T02:01:24.491Z,-4.64
2023-02-09T02:02:26.964Z,-4.69
2023-02-09T02:03:29.878Z,-4.76
2023-02-09T02:04:31.741Z,-4.81
2023-02-09T02:05:39.418Z,-4.84
2023-02-09T02:06:41.499Z,-4.88
2023-02-09T02:08:04.614Z,-4.90
2023-02-09T02:09:13.206Z,-4.87
2023-02-09T02:10:14.951Z,-4.86
2023-02-09T02:11:17.221Z,-4.82
2023-02-09T02:12:18.841Z,-4.80
2023-02-09T02:13:20.977Z,-4.84
2023-02-09T02:15:51.423Z,-4.85
2023-02-09T02:17:20.105Z,-4.80
2023-02-09T02:18:45.759Z,-4.86
2023-02-09T02:20:26.187Z,-4.94
2023-02-09T02:21:49.440Z,-5.01
2023-02-09T02:23:02.840Z,-5.05
2023-02-09T02:24:29.339Z,-5.05
2023-02-09T02:25:33.708Z,-5.06
2023-02-09T02:26:48.363Z,-5.03
2023-02-09T02:28:08.514Z,-5.08
2023-02-09T02:29:31.550Z,-5.11
2023-02-09T02:31:02.219Z,-5.12
2023-02-09T02:32:08.139Z,-5.17
2023-02-09T02:33:27.074Z,-5.22
2023-02-09T02:34:43.999Z,-5.21
2023-02-09T02:36:04.501Z,-5.25
2023-02-09T02:37:18.962Z,-5.27
2023-02-09T02:38:39.135Z,-5.30
2023-02-09T02:40:03.741Z,-5.37
2023-02-09T02:41:16.072Z,-5.34
2023-02-09T02:42:45.141Z,-5.31
2023-02-09T02:44:16.093Z,-5.39
2023-02-09T02:45:32.403Z,-5.38
2023-02-09T02:46:53.254Z,-5.38
2023-02-09T02:48:29.242Z,-5.41
2023-02-09T02:49:43.231Z,-5.37
2023-02-09T02:50:52.929Z,-5.36
2023-02-09T02:51:59.867Z,-5.38
2023-02-09T02:53:04.435Z,-5.37
2023-02-09T02:54:11.476Z,-5.34
2023-02-09T02:55:17.277Z,-5.39
2023-02-09T02:56:22.812Z,-5.39
2023-02-09T02:57:30.648Z,-5.49
2023-02-09T02:58:33.884Z,-5.52
2023-02-09T02:59:43.921Z,-5.48
2023-02-09T03:00:50.207Z,-5.50
2023-02-09T03:01:57.498Z,-5.52
2023-02-09T03:03:06.068Z,-5.53
2023-02-09T03:04:09.012Z,-5.52
2023-02-09T03:05:11.904Z,-5.53
2023-02-09T03:06:14.833Z,-5.59
2023-02-09T03:07:18.084Z,-5.59
2023-02-09T03:08:19.622Z,-5.61
2023-02-09T03:09:21.094Z,-5.64
2023-02-09T03:10:38.507Z,-5.70
2023-02-09T03:11:44.638Z,-5.73
2023-02-09T03:12:52.109Z,-5.71
2023-02-09T03:14:16.571Z,-5.75
2023-02-09T03:15:22.815Z,-5.76
2023-02-09T03:16:58.718Z,-5.76
2023-02-09T03:18:12.154Z,-5.72
2023-02-09T03:19:41.579Z,-5.66
2023-02-09T03:20:49.807Z,-5.70
2023-02-09T03:22:16.032Z,-5.63
2023-02-09T03:23:27.774Z,-5.60
2023-02-09T03:24:51.582Z,-5.64
2023-02-09T03:25:56.971Z,-5.74
2023-02-09T03:27:07.260Z,-5.72
2023-02-09T03:28:23.996Z,-5.70
2023-02-09T03:29:28.322Z,-5.71
2023-02-09T03:30:32.736Z,-5.77
2023-02-09T03:31:35.298Z,-5.82
2023-02-09T03:32:39.500Z,-5.86
2023-02-09T03:33:42.074Z,-5.94
2023-02-09T03:34:44.583Z,-5.97
2023-02-09T03:35:50.312Z,-6.00
2023-02-09T03:36:54.738Z,-5.99
2023-02-09T03:37:56.942Z,-5.95
2023-02-09T03:38:58.589Z,-5.88
2023-02-09T03:40:00.181Z,-5.89
2023-02-09T03:41:01.621Z,-5.85
2023-02-09T03:42:03.519Z,-5.88
2023-02-09T03:43:05.028Z,-5.89
2023-02-09T03:44:25.239Z,-5.94
2023-02-09T03:45:26.786Z,-6.02
2023-02-09T03:46:28.301Z,-6.11
2023-02-09T03:47:30.846Z,-6.14
2023-02-09T03:48:32.977Z,-6.19
2023-02-09T03:49:39.691Z,-6.16
2023-02-09T03:50:41.172Z,-6.14
2023-02-09T03:51:43.040Z,-6.11
2023-02-09T03:52:44.482Z,-6.07
2023-02-09T03:53:47.452Z,-6.09
2023-02-09T03:54:48.978Z,-6.17
2023-02-09T03:55:50.483Z,-6.20
2023-02-09T03:56:52.064Z,-6.19
2023-02-09T03:57:53.601Z,-6.23
2023-02-09T03:58:55.461Z,-6.21
2023-02-09T03:59:57.004Z,-6.16
2023-02-09T04:01:07.890Z,-6.21
2023-02-09T04:02:10.236Z,-6.14
2023-02-09T04:03:11.807Z,-6.13
2023-02-09T04:04:13.727Z,-6.14
2023-02-09T04:05:15.284Z,-6.18
2023-02-09T04:06:17.157Z,-6.21
2023-02-09T04:07:18.634Z,-6.19
2023-02-09T04:08:20.220Z,-6.11
2023-02-09T04:09:22.650Z,-6.07
2023-02-09T04:10:24.126Z,-6.09
2023-02-09T04:11:26.320Z,-6.10
2023-02-09T04:12:27.855Z,-6.11
2023-02-09T04:13:29.643Z,-6.19
2023-02-09T04:14:31.461Z,-6.28
2023-02-09T04:15:32.991Z,-6.31
2023-02-09T04:16:35.532Z,-6.34
2023-02-09T04:17:37.146Z,-6.35
2023-02-09T04:18:38.622Z,-6.30
2023-02-09T04:19:40.151Z,-6.25
2023-02-09T04:20:41.900Z,-6.19
2023-02-09T04:21:43.520Z,-6.28
2023-02-09T04:22:45.062Z,-6.29
2023-02-09T04:23:46.744Z,-6.31
2023-02-09T04:24:48.568Z,-6.27
2023-02-09T04:25:50.104Z,-6.24
2023-02-09T04:26:51.638Z,-6.24
2023-02-09T04:27:53.512Z,-6.27
2023-02-09T04:28:55.054Z,-6.31
2023-02-09T04:29:56.579Z,-6.38
2023-02-09T04:30:58.368Z,-6.41
2023-02-09T04:32:00.120Z,-6.47
2023-02-09T04:33:01.766Z,-6.46
2023-02-09T04:34:03.480Z,-6.51
2023-02-09T04:35:05.798Z,-6.53
2023-02-09T04:36:08.850Z,-6.49
2023-02-09T04:37:10.320Z,-6.48
2023-02-09T04:38:12.037Z,-6.52
2023-02-09T04:39:13.498Z,-6.53
2023-02-09T04:40:15.345Z,-6.52
2023-02-09T04:41:16.996Z,-6.52
2023-02-09T04:42:18.440Z,-6.57
2023-02-09T04:43:20.512Z,-6.57
2023-02-09T04:44:22.194Z,-6.58
2023-02-09T04:45:24.096Z,-6.62
2023-02-09T04:46:25.762Z,-6.65
2023-02-09T04:47:27.481Z,-6.65
2023-02-09T04:48:29.918Z,-6.67
2023-02-09T04:49:31.463Z,-6.64
2023-02-09T04:50:33.745Z,-6.65
2023-02-09T04:51:35.285Z,-6.63
2023-02-09T04:52:36.797Z,-6.63
2023-02-09T04:53:38.688Z,-6.67
2023-02-09T04:54:40.352Z,-6.64
2023-02-09T04:55:43.990Z,-6.66
2023-02-09T04:56:45.526Z,-6.70
2023-02-09T04:58:05.849Z,-6.67
2023-02-09T04:59:27.440Z,-6.70
2023-02-09T05:00:29.035Z,-6.76
2023-02-09T05:01:30.827Z,-6.85
2023-02-09T05:02:32.403Z,-6.88
2023-02-09T05:03:34.261Z,-6.89
2023-02-09T05:04:35.898Z,-6.93
2023-02-09T05:05:41.557Z,-6.93
2023-02-09T05:06:43.021Z,-6.91
2023-02-09T05:07:44.690Z,-6.90
2023-02-09T05:08:47.165Z,-6.86
2023-02-09T05:09:51.023Z,-6.90
2023-02-09T05:10:53.575Z,-6.97
2023-02-09T05:11:55.260Z,-7.02
2023-02-09T05:12:56.741Z,-7.02
2023-02-09T05:13:58.401Z,-7.00
2023-02-09T05:15:00.156Z,-6.95
2023-02-09T05:16:09.563Z,-6.90
2023-02-09T05:17:11.002Z,-6.89
2023-02-09T05:18:12.597Z,-6.91
2023-02-09T05:19:14.230Z,-6.98
2023-02-09T05:20:16.007Z,-7.00
2023-02-09T05:21:18.003Z,-7.00
2023-02-09T05:22:19.584Z,-6.97
2023-02-09T05:23:21.093Z,-6.98
2023-02-09T05:24:22.660Z,-6.99
2023-02-09T05:25:24.185Z,-6.94
2023-02-09T05:26:25.830Z,-6.92
2023-02-09T05:27:27.374Z,-6.93
2023-02-09T05:28:28.970Z,-6.96
2023-02-09T05:29:30.491Z,-6.92
2023-02-09T05:30:32.371Z,-6.87
2023-02-09T05:31:34.132Z,-6.81
2023-02-09T05:32:35.721Z,-6.78
2023-02-09T05:33:37.251Z,-6.78
2023-02-09T05:34:38.707Z,-6.74
2023-02-09T05:35:40.367Z,-6.73
2023-02-09T05:36:42.167Z,-6.72
2023-02-09T05:37:43.666Z,-6.68
2023-02-09T05:38:45.167Z,-6.68
2023-02-09T05:39:46.711Z,-6.68
2023-02-09T05:40:48.368Z,-6.80
2023-02-09T05:42:08.664Z,-6.82
2023-02-09T05:43:40.503Z,-6.86
2023-02-09T05:44:32.438Z,-6.90
2023-02-09T05:45:33.988Z,-6.92
2023-02-09T05:46:35.524Z,-6.96
2023-02-09T05:47:37.297Z,-6.96
2023-02-09T05:48:38.808Z,-6.97
2023-02-09T05:49:40.374Z,-6.96
2023-02-09T05:50:41.908Z,-6.99
2023-02-09T05:51:43.488Z,-7.03
2023-02-09T05:52:45.296Z,-7.06
2023-02-09T05:53:46.955Z,-7.08
2023-02-09T05:54:49.170Z,-7.07
2023-02-09T05:55:50.632Z,-7.04
2023-02-09T05:56:52.166Z,-6.99
2023-02-09T05:57:53.609Z,-6.98
2023-02-09T05:58:55.152Z,-6.96
2023-02-09T05:59:56.813Z,-7.06
2023-02-09T06:00:58.438Z,-7.08
2023-02-09T06:02:00.307Z,-7.12
2023-02-09T06:03:02.493Z,-7.20
2023-02-09T06:04:04.117Z,-7.21
2023-02-09T06:05:05.877Z,-7.22
2023-02-09T06:06:07.504Z,-7.22
2023-02-09T06:07:11.621Z,-7.22
2023-02-09T06:08:13.502Z,-7.17
2023-02-09T06:09:15.003Z,-7.15
2023-02-09T06:10:17.996Z,-7.17
2023-02-09T06:11:19.711Z,-7.19
2023-02-09T06:12:21.175Z,-7.17
2023-02-09T06:13:22.679Z,-7.20
2023-02-09T06:14:24.256Z,-7.22
2023-02-09T06:15:25.809Z,-7.18
2023-02-09T06:16:27.526Z,-7.12
2023-02-09T06:17:29.073Z,-7.15
2023-02-09T06:18:30.631Z,-7.17
2023-02-09T06:19:32.129Z,-7.14
2023-02-09T06:20:33.554Z,-7.15
2023-02-09T06:21:34.983Z,-7.20
2023-02-09T06:22:36.482Z,-7.26
2023-02-09T06:23:38.876Z,-7.22
2023-02-09T06:24:40.369Z,-7.16
2023-02-09T06:25:41.970Z,-7.17
2023-02-09T06:26:43.874Z,-7.17
2023-02-09T06:27:45.468Z,-7.22
2023-02-09T06:28:47.290Z,-7.23
2023-02-09T06:29:48.737Z,-7.23
2023-02-09T06:30:52.418Z,-7.27
2023-02-09T06:31:54.276Z,-7.25
2023-02-09T06:32:55.799Z,-7.18
2023-02-09T06:33:57.260Z,-7.11
2023-02-09T06:34:58.719Z,-7.03
2023-02-09T06:36:00.601Z,-7.00
2023-02-09T06:37:02.170Z,-7.02
2023-02-09T06:38:03.654Z,-6.96
2023-02-09T06:39:09.636Z,-6.96
2023-02-09T06:40:11.535Z,-6.97
2023-02-09T06:41:13.057Z,-6.98
2023-02-09T06:42:14.487Z,-6.97
2023-02-09T06:43:16.536Z,-6.92
2023-02-09T06:44:18.315Z,-6.88
2023-02-09T06:45:19.962Z,-6.95
2023-02-09T06:46:21.551Z,-7.03
2023-02-09T06:47:23.193Z,-7.08
2023-02-09T06:48:24.681Z,-7.09
2023-02-09T06:49:26.664Z,-7.05
2023-02-09T06:50:28.415Z,-7.07
2023-02-09T06:51:29.881Z,-7.05
2023-02-09T06:52:31.596Z,-7.05
2023-02-09T06:53:33.040Z,-7.04
2023-02-09T06:54:34.566Z,-6.96
2023-02-09T06:55:36.091Z,-6.91
2023-02-09T06:56:37.586Z,-6.95
2023-02-09T06:57:39.489Z,-6.94
2023-02-09T06:58:41.604Z,-6.94
2023-02-09T06:59:43.262Z,-6.96
2023-02-09T07:00:45.032Z,-6.96
2023-02-09T07:01:49.878Z,-6.89
2023-02-09T07:02:51.890Z,-6.92
2023-02-09T07:03:53.377Z,-6.93
2023-02-09T07:04:54.995Z,-6.92
2023-02-09T07:06:02.028Z,-6.91
2023-02-09T07:07:03.519Z,-6.90
2023-02-09T07:08:05.243Z,-6.86
2023-02-09T07:09:06.687Z,-6.84
2023-02-09T07:10:10.842Z,-6.78
2023-02-09T07:11:15.301Z,-6.77
2023-02-09T07:12:16.880Z,-6.73
2023-02-09T07:13:18.379Z,-6.66
2023-02-09T07:14:19.943Z,-6.62
2023-02-09T07:15:21.556Z,-6.60
2023-02-09T07:16:23.226Z,-6.60
2023-02-09T07:17:24.899Z,-6.67
2023-02-09T07:18:27.235Z,-6.67
2023-02-09T07:19:28.800Z,-6.67
2023-02-09T07:20:30.374Z,-6.65
2023-02-09T07:21:31.994Z,-6.60
2023-02-09T07:22:34.127Z,-6.61
2023-02-09T07:23:35.897Z,-6.60
2023-02-09T07:24:37.513Z,-6.65
2023-02-09T07:25:38.997Z,-6.62
2023-02-09T07:26:40.702Z,-6.61
2023-02-09T07:27:45.616Z,-6.53
2023-02-09T07:28:47.207Z,-6.56
2023-02-09T07:29:48.979Z,-6.48
2023-02-09T07:30:52.277Z,-6.45
2023-02-09T07:31:53.975Z,-6.46
2023-02-09T07:32:55.635Z,-6.45
2023-02-09T07:33:58.366Z,-6.43
2023-02-09T07:34:59.912Z,-6.35
2023-02-09T07:36:09.657Z,-6.33
2023-02-09T07:37:11.456Z,-6.32
2023-02-09T07:38:13.392Z,-6.36
2023-02-09T07:39:15.494Z,-6.36
2023-02-09T07:40:19.979Z,-6.34
2023-02-09T07:41:25.246Z,-6.26
2023-02-09T07:42:26.783Z,-6.20
2023-02-09T07:43:28.791Z,-6.13
2023-02-09T07:44:30.439Z,-6.08
2023-02-09T07:45:32.522Z,-6.02
2023-02-09T07:46:34.133Z,-5.95
2023-02-09T07:47:35.854Z,-5.88
2023-02-09T07:48:37.868Z,-5.83
2023-02-09T07:49:39.482Z,-5.81
2023-02-09T07:50:41.033Z,-5.77
2023-02-09T07:51:42.696Z,-5.73
2023-02-09T07:52:44.225Z,-5.72
2023-02-09T07:53:47.145Z,-5.69
2023-02-09T07:54:50.657Z,-5.65
2023-02-09T07:55:52.602Z,-5.59
2023-02-09T07:56:55.657Z,-5.57
2023-02-09T07:57:57.188Z,-5.50
2023-02-09T07:58:58.660Z,-5.43
2023-02-09T08:00:00.199Z,-5.38
2023-02-09T08:01:06.778Z,-5.35
2023-02-09T08:02:18.591Z,-5.34
2023-02-09T08:03:23.068Z,-5.32
2023-02-09T08:04:24.836Z,-5.25
2023-02-09T08:05:40.803Z,-5.19
2023-02-09T08:06:46.431Z,-5.17
2023-02-09T08:07:48.296Z,-5.13
2023-02-09T08:08:51.752Z,-5.09
2023-02-09T08:09:53.467Z,-5.09
2023-02-09T08:10:58.250Z,-5.08
2023-02-09T08:12:03.240Z,-5.04
2023-02-09T08:13:05.149Z,-5.02
2023-02-09T08:14:13.698Z,-4.98
2023-02-09T08:15:21.086Z,-4.94
2023-02-09T08:16:28.426Z,-4.93
2023-02-09T08:17:30.050Z,-4.92
2023-02-09T08:18:45.317Z,-4.85
2023-02-09T08:20:09.748Z,-4.79
2023-02-09T08:21:14.272Z,-4.69
2023-02-09T08:22:16.070Z,-4.67
2023-02-09T08:23:30.186Z,-4.64
2023-02-09T08:24:32.161Z,-4.60
2023-02-09T08:25:35.378Z,-4.49
2023-02-09T08:26:36.826Z,-4.41
2023-02-09T08:27:39.695Z,-4.42
2023-02-09T08:28:45.686Z,-4.40
2023-02-09T08:29:48.936Z,-4.38
2023-02-09T08:30:50.919Z,-4.35
2023-02-09T08:31:52.867Z,-4.32
2023-02-09T08:32:54.508Z,-4.27
2023-02-09T08:33:56.123Z,-4.25
2023-02-09T08:34:57.798Z,-4.23
2023-02-09T08:35:59.641Z,-4.20
2023-02-09T08:37:01.112Z,-4.16
2023-02-09T08:38:04.283Z,-4.17
2023-02-09T08:39:07.336Z,-4.13
2023-02-09T08:40:09.577Z,-4.14
2023-02-09T08:41:13.989Z,-4.09
2023-02-09T08:42:15.494Z,-4.08
2023-02-09T08:43:17.007Z,-4.05
2023-02-09T08:44:18.578Z,-4.02
2023-02-09T08:45:20.472Z,-3.99
2023-02-09T08:46:22.450Z,-3.95
2023-02-09T08:47:24.152Z,-3.91
2023-02-09T08:48:25.808Z,-3.86
2023-02-09T08:49:28.002Z,-3.78
2023-02-09T08:50:29.594Z,-3.69
2023-02-09T08:51:31.097Z,-3.63
2023-02-09T08:52:32.654Z,-3.47
2023-02-09T08:53:34.812Z,-3.39
2023-02-09T08:54:36.730Z,-3.39
2023-02-09T08:55:39.171Z,-3.38
2023-02-09T08:56:41.335Z,-3.39
2023-02-09T08:57:44.618Z,-3.38
2023-02-09T08:58:46.467Z,-3.38
2023-02-09T08:59:49.612Z,-3.30
2023-02-09T09:00:52.858Z,-3.20
2023-02-09T09:01:54.897Z,-3.09
2023-02-09T09:02:56.381Z,-3.10
2023-02-09T09:03:57.946Z,-3.11
2023-02-09T09:04:59.463Z,-3.15
2023-02-09T09:06:03.417Z,-3.15
2023-02-09T09:07:04.995Z,-3.05
2023-02-09T09:08:06.530Z,-3.06
2023-02-09T09:09:08.166Z,-2.99
2023-02-09T09:10:10.851Z,-2.87
2023-02-09T09:11:14.653Z,-2.92
2023-02-09T09:12:16.174Z,-2.86
2023-02-09T09:13:17.859Z,-2.79
2023-02-09T09:14:19.321Z,-2.76
2023-02-09T09:15:21.215Z,-2.74
2023-02-09T09:16:22.901Z,-2.68
2023-02-09T09:17:24.484Z,-2.64
2023-02-09T09:18:26.481Z,-2.66
2023-02-09T09:19:29.208Z,-2.64
2023-02-09T09:20:30.741Z,-2.60
2023-02-09T09:21:33.467Z,-2.45
2023-02-09T09:22:35.223Z,-2.38
2023-02-09T09:23:36.869Z,-2.35
2023-02-09T09:24:40.779Z,-2.26
2023-02-09T09:25:43.247Z,-2.21
2023-02-09T09:26:44.837Z,-2.15
2023-02-09T09:27:46.379Z,-2.08
2023-02-09T09:28:51.383Z,-2.01
2023-02-09T09:29:53.027Z,-1.96
2023-02-09T09:30:54.729Z,-1.92
2023-02-09T09:31:56.348Z,-1.83
2023-02-09T09:32:58.009Z,-1.78
2023-02-09T09:34:00.383Z,-1.70
2023-02-09T09:35:03.547Z,-1.75
2023-02-09T09:36:05.738Z,-1.78
2023-02-09T09:37:07.315Z,-1.72
2023-02-09T09:38:09.117Z,-1.67
2023-02-09T09:39:10.612Z,-1.60
2023-02-09T09:40:20.126Z,-1.61
2023-02-09T09:41:27.437Z,-1.66
2023-02-09T09:42:37.189Z,-1.65
2023-02-09T09:43:40.988Z,-1.68
2023-02-09T09:44:46.961Z,-1.71
2023-02-09T09:45:49.847Z,-1.72
2023-02-09T09:46:54.496Z,-1.68
2023-02-09T09:47:56.394Z,-1.74
2023-02-09T09:48:59.761Z,-1.73
2023-02-09T09:50:01.480Z,-1.73
2023-02-09T09:51:16.160Z,-1.75
2023-02-09T09:52:32.166Z,-1.69
2023-02-09T09:53:36.564Z,-1.77
2023-02-09T09:54:38.157Z,-1.73
2023-02-09T09:55:39.895Z,-1.70
2023-02-09T09:56:41.835Z,-1.70
2023-02-09T09:57:44.920Z,-1.66
2023-02-09T09:58:48.810Z,-1.69
2023-02-09T09:59:52.278Z,-1.73
2023-02-09T10:00:54.817Z,-1.73
2023-02-09T10:01:59.194Z,-1.61
2023-02-09T10:03:00.818Z,-1.59
2023-02-09T10:04:09.815Z,-1.44
2023-02-09T10:05:27.005Z,-1.37
2023-02-09T10:06:36.866Z,-1.39
2023-02-09T10:07:40.309Z,-1.41
2023-02-09T10:08:59.777Z,-1.35
2023-02-09T10:10:15.670Z,-1.36
2023-02-09T10:11:23.616Z,-1.38
2023-02-09T10:12:41.684Z,-1.32
2023-02-09T10:13:48.657Z,-1.24
2023-02-09T10:14:50.169Z,-1.37
2023-02-09T10:15:54.390Z,-1.33
2023-02-09T10:16:55.959Z,-1.36
2023-02-09T10:17:58.133Z,-1.26
2023-02-09T10:19:05.945Z,-1.34
2023-02-09T10:20:08.244Z,-1.30
2023-02-09T10:21:16.689Z,-1.18
2023-02-09T10:22:20.814Z,-1.15
2023-02-09T10:23:26.807Z,-1.18
2023-02-09T10:24:33.932Z,-1.26
2023-02-09T10:25:48.441Z,-1.34
2023-02-09T10:27:02.398Z,-1.22
2023-02-09T10:28:06.494Z,-1.16
2023-02-09T10:29:23.663Z,-1.18
2023-02-09T10:30:28.684Z,-1.29
2023-02-09T10:31:36.467Z,-1.26
2023-02-09T10:32:43.268Z,-1.19
2023-02-09T10:33:50.340Z,-1.32
2023-02-09T10:34:54.233Z,-1.27
2023-02-09T10:35:59.795Z,-1.21
2023-02-09T10:37:13.840Z,-1.20
2023-02-09T10:38:21.441Z,-1.12
2023-02-09T10:39:30.384Z,-1.21
2023-02-09T10:40:34.477Z,-1.25
2023-02-09T10:41:36.257Z,-1.28
2023-02-09T10:42:59.906Z,-1.25
2023-02-09T10:44:13.544Z,-1.13
2023-02-09T10:45:44.623Z,-1.17
2023-02-09T10:46:47.557Z,-1.07
2023-02-09T10:48:15.360Z,-1.12
2023-02-09T10:49:36.100Z,-1.11
2023-02-09T10:50:57.976Z,-1.11
2023-02-09T10:52:21.449Z,-1.13
2023-02-09T10:53:25.904Z,-1.09
2023-02-09T10:54:31.033Z,-1.05
2023-02-09T10:55:41.747Z,-1.06
2023-02-09T10:56:46.993Z,-0.99
2023-02-09T10:57:48.804Z,-0.83
2023-02-09T10:59:00.092Z,-0.83
2023-02-09T11:00:16.803Z,-0.91
2023-02-09T11:01:23.820Z,-0.94
2023-02-09T11:02:41.206Z,-0.86
2023-02-09T11:04:06.218Z,-0.88
2023-02-09T11:05:20.202Z,-0.88
2023-02-09T11:06:21.702Z,-0.87
2023-02-09T11:07:31.858Z,-0.80
2023-02-09T11:08:56.724Z,-0.67
2023-02-09T11:10:01.016Z,-0.48
2023-02-09T11:11:31.934Z,-0.43
2023-02-09T11:12:34.065Z,-0.53
2023-02-09T11:13:35.715Z,-0.45
2023-02-09T11:14:37.448Z,-0.40
2023-02-09T11:15:45.687Z,-0.47
2023-02-09T11:16:59.905Z,-0.53
2023-02-09T11:18:25.711Z,-0.53
2023-02-09T11:19:46.085Z,-0.63
2023-02-09T11:20:53.571Z,-0.66
2023-02-09T11:22:17.405Z,-0.60
2023-02-09T11:23:41.582Z,-0.48
2023-02-09T11:24:51.302Z,-0.38
2023-02-09T11:26:04.150Z,-0.44
2023-02-09T11:27:43.989Z,-0.35
2023-02-09T11:28:56.801Z,-0.42
2023-02-09T11:30:20.667Z,-0.43
2023-02-09T11:31:49.895Z,-0.39
2023-02-09T11:33:19.159Z,-0.47
2023-02-09T11:34:53.817Z,-0.47
2023-02-09T11:36:27.635Z,-0.34
2023-02-09T11:37:50.322Z,-0.21
2023-02-09T11:38:57.176Z,-0.17
2023-02-09T11:40:26.134Z,-0.14
2023-02-09T11:41:56.161Z,-0.14
2023-02-09T11:43:19.841Z,-0.18
2023-02-09T11:44:55.896Z,-0.20
2023-02-09T11:46:14.120Z,-0.22
2023-02-09T11:47:33.683Z,-0.13
2023-02-09T11:48:45.660Z,-0.12
2023-02-09T11:49:53.326Z,-0.15
2023-02-09T11:51:09.448Z,-0.25
2023-02-09T11:52:25.063Z,-0.17
2023-02-09T11:53:26.945Z,-0.23
2023-02-09T11:54:32.785Z,-0.26
2023-02-09T11:55:47.220Z,-0.26
2023-02-09T11:56:53.097Z,-0.22
2023-02-09T11:58:08.728Z,-0.23
2023-02-09T11:59:25.112Z,-0.24
2023-02-09T12:00:48.012Z,-0.16
2023-02-09T12:02:09.243Z,0.11
2023-02-09T12:03:12.780Z,0.01
2023-02-09T12:04:17.888Z,0.10
2023-02-09T12:05:21.830Z,0.05
2023-02-09T12:06:24.805Z,0.16
2023-02-09T12:07:45.043Z,0.15
2023-02-09T12:09:24.234Z,0.03
2023-02-09T12:10:37.532Z,0.15
2023-02-09T12:11:45.418Z,0.23
2023-02-09T12:13:03.370Z,0.27
2023-02-09T12:14:24.727Z,0.34
2023-02-09T12:15:41.088Z,0.39
2023-02-09T12:16:48.679Z,0.42
2023-02-09T12:17:57.298Z,0.44
2023-02-09T12:18:59.079Z,0.50
2023-02-09T12:20:02.208Z,0.47
2023-02-09T12:21:05.643Z,0.43
2023-02-09T12:22:35.457Z,0.37
2023-02-09T12:23:41.579Z,0.35
2023-02-09T12:25:15.995Z,0.30
2023-02-09T12:26:17.409Z,0.37
2023-02-09T12:27:27.066Z,0.43
2023-02-09T12:28:31.603Z,0.48
2023-02-09T12:29:35.497Z,0.58
2023-02-09T12:30:39.871Z,0.62
2023-02-09T12:32:09.074Z,0.61
2023-02-09T12:33:35.258Z,0.54
2023-02-09T12:34:46.571Z,0.48
2023-02-09T12:36:09.145Z,0.55
2023-02-09T12:37:13.072Z,0.71
2023-02-09T12:38:18.243Z,1.01
2023-02-09T12:39:24.027Z,0.96
2023-02-09T12:40:36.067Z,0.87
2023-02-09T12:41:39.521Z,0.78
2023-02-09T12:43:02.983Z,0.79
2023-02-09T12:44:10.382Z,0.95
2023-02-09T12:45:32.778Z,1.06
2023-02-09T12:46:56.742Z,1.03
2023-02-09T12:48:08.710Z,1.19
2023-02-09T12:49:15.969Z,1.19
2023-02-09T12:50:32.696Z,1.28
2023-02-09T12:51:53.084Z,1.34
2023-02-09T12:53:22.181Z,1.37
2023-02-09T12:54:45.573Z,1.34
2023-02-09T12:56:11.560Z,1.52
2023-02-09T12:57:16.019Z,1.66
2023-02-09T12:58:40.099Z,1.86
2023-02-09T13:00:03.750Z,1.94
2023-02-09T13:01:05.905Z,2.05
2023-02-09T13:02:07.605Z,1.95
2023-02-09T13:03:13.131Z,2.01
2023-02-09T13:04:15.218Z,2.01
2023-02-09T13:05:22.036Z,2.01
2023-02-09T13:06:36.766Z,2.06
2023-02-09T13:07:42.495Z,2.17
2023-02-09T13:08:49.969Z,2.21
2023-02-09T13:09:52.500Z,2.26
2023-02-09T13:10:57.688Z,2.41
2023-02-09T13:12:11.653Z,2.43
2023-02-09T13:13:17.025Z,2.43
2023-02-09T13:14:22.307Z,2.56
2023-02-09T13:15:29.157Z,2.69
2023-02-09T13:16:38.323Z,2.71
2023-02-09T13:17:43.934Z,2.89
2023-02-09T13:19:08.043Z,2.80
2023-02-09T13:20:30.662Z,2.85
2023-02-09T13:21:57.710Z,3.29
2023-02-09T13:23:05.116Z,3.47
2023-02-09T13:24:33.864Z,3.42
2023-02-09T13:25:38.704Z,3.73
2023-02-09T13:26:51.806Z,3.56
2023-02-09T13:27:53.311Z,3.33
2023-02-09T13:29:23.300Z,3.50
2023-02-09T13:30:30.231Z,3.67
2023-02-09T13:31:43.015Z,3.81
2023-02-09T13:32:57.405Z,3.88
2023-02-09T13:34:05.662Z,3.98
2023-02-09T13:35:10.271Z,4.00
2023-02-09T13:36:30.070Z,4.05
2023-02-09T13:37:47.076Z,3.90
2023-02-09T13:38:48.724Z,3.92
2023-02-09T13:40:01.908Z,4.05
2023-02-09T13:41:07.576Z,4.09
2023-02-09T13:42:19.223Z,4.35
2023-02-09T13:43:32.440Z,4.26
2023-02-09T13:44:33.944Z,4.46
2023-02-09T13:45:35.675Z,4.54
2023-02-09T13:46:39.412Z,4.62
2023-02-09T13:47:43.014Z,4.79
2023-02-09T13:48:45.031Z,4.84
2023-02-09T13:49:59.574Z,5.12
2023-02-09T13:51:03.843Z,5.26
2023-02-09T13:52:11.591Z,5.36
2023-02-09T13:53:17.934Z,5.55
2023-02-09T13:54:20.535Z,5.57
2023-02-09T13:55:24.324Z,5.77
2023-02-09T13:56:27.386Z,6.06
2023-02-09T13:57:31.390Z,6.05
2023-02-09T13:58:35.505Z,6.05
2023-02-09T13:59:41.124Z,6.02
2023-02-09T14:00:45.687Z,5.86
2023-02-09T14:01:47.997Z,5.63
2023-02-09T14:02:57.491Z,5.67
2023-02-09T14:04:00.881Z,5.64
2023-02-09T14:05:06.411Z,5.60
2023-02-09T14:06:20.380Z,5.84
2023-02-09T14:07:26.128Z,5.81
2023-02-09T14:08:30.510Z,6.09
2023-02-09T14:09:44.672Z,6.41
2023-02-09T14:11:15.524Z,6.56
2023-02-09T14:12:21.241Z,6.42
2023-02-09T14:13:39.822Z,6.61
2023-02-09T14:15:04.298Z,6.61
2023-02-09T14:16:09.746Z,6.94
2023-02-09T14:17:25.894Z,6.75
2023-02-09T14:18:47.537Z,6.41
2023-02-09T14:19:49.263Z,6.33
2023-02-09T14:21:15.748Z,6.20
2023-02-09T14:22:45.468Z,6.32